sensor_id;sensor_type;location;lat;lon;timestamp;P1;durP1;ratioP1;P2;durP2;ratioP2
65552;SDS011;52465;51.560;14.368;2023-07-20T00:01:12;3.47;;;3.28;;
65552;SDS011;52465;51.560;14.368;2023-07-20T00:05:37;3.35;;;3.15;;
65552;SDS011;52465;51.560;14.368;2023-07-20T00:09:28;3.40;;;3.20;;
65552;SDS011;52465;51.560;14.368;2023-07-20T00:11:54;3.13;;;3.03;;
65552;SDS011;52465;51.560;14.368;2023-07-20T00:32:09;3.08;;;2.90;;
65552;SDS011;52465;51.560;14.368;2023-07-20T00:34:35;3.22;;;3.03;;
65552;SDS011;52465;51.560;14.368;2023-07-20T00:43:52;3.30;;;3.10;;
65552;SDS011;52465;51.560;14.368;2023-07-20T00:46:18;3.13;;;2.92;;
65552;SDS011;52465;51.560;14.368;2023-07-20T00:48:43;3.30;;;3.10;;
65552;SDS011;52465;51.560;14.368;2023-07-20T00:59:27;3.10;;;2.90;;
65552;SDS011;52465;51.560;14.368;2023-07-20T01:03:54;3.30;;;3.10;;
65552;SDS011;52465;51.560;14.368;2023-07-20T01:08:08;3.55;;;3.35;;
65552;SDS011;52465;51.560;14.368;2023-07-20T01:12:04;3.65;;;3.45;;
65552;SDS011;52465;51.560;14.368;2023-07-20T01:14:33;3.20;;;3.00;;
65552;SDS011;52465;51.560;14.368;2023-07-20T01:16:59;3.40;;;3.20;;
65552;SDS011;52465;51.560;14.368;2023-07-20T01:19:25;3.65;;;3.40;;
65552;SDS011;52465;51.560;14.368;2023-07-20T01:25:01;3.35;;;3.15;;
65552;SDS011;52465;51.560;14.368;2023-07-20T01:37:50;3.25;;;3.05;;
65552;SDS011;52465;51.560;14.368;2023-07-20T01:40:17;3.20;;;3.00;;
65552;SDS011;52465;51.560;14.368;2023-07-20T01:42:43;3.33;;;3.10;;
65552;SDS011;52465;51.560;14.368;2023-07-20T01:45:10;3.28;;;3.08;;
65552;SDS011;52465;51.560;14.368;2023-07-20T01:54:08;3.55;;;3.35;;
65552;SDS011;52465;51.560;14.368;2023-07-20T02:03:14;4.38;;;3.45;;
65552;SDS011;52465;51.560;14.368;2023-07-20T02:05:39;3.17;;;2.97;;
65552;SDS011;52465;51.560;14.368;2023-07-20T02:08:07;3.50;;;3.30;;
65552;SDS011;52465;51.560;14.368;2023-07-20T02:14:42;3.25;;;3.05;;
65552;SDS011;52465;51.560;14.368;2023-07-20T02:20:35;3.20;;;3.00;;
65552;SDS011;52465;51.560;14.368;2023-07-20T02:26:19;3.38;;;3.17;;
65552;SDS011;52465;51.560;14.368;2023-07-20T02:28:45;3.10;;;3.00;;
65552;SDS011;52465;51.560;14.368;2023-07-20T02:41:04;3.28;;;3.08;;
65552;SDS011;52465;51.560;14.368;2023-07-20T02:43:30;3.38;;;3.17;;
65552;SDS011;52465;51.560;14.368;2023-07-20T02:45:55;3.30;;;3.10;;
65552;SDS011;52465;51.560;14.368;2023-07-20T02:52:07;3.40;;;3.20;;
65552;SDS011;52465;51.560;14.368;2023-07-20T02:58:41;3.50;;;3.30;;
65552;SDS011;52465;51.560;14.368;2023-07-20T03:01:06;3.42;;;3.22;;
65552;SDS011;52465;51.560;14.368;2023-07-20T03:08:26;3.60;;;3.30;;
65552;SDS011;52465;51.560;14.368;2023-07-20T03:18:27;2.90;;;2.80;;
65552;SDS011;52465;51.560;14.368;2023-07-20T03:25:56;3.33;;;3.13;;
65552;SDS011;52465;51.560;14.368;2023-07-20T03:41:32;3.03;;;2.90;;
65552;SDS011;52465;51.560;14.368;2023-07-20T03:43:58;3.30;;;3.10;;
65552;SDS011;52465;51.560;14.368;2023-07-20T03:51:10;3.30;;;3.10;;
65552;SDS011;52465;51.560;14.368;2023-07-20T03:53:36;3.13;;;3.03;;
65552;SDS011;52465;51.560;14.368;2023-07-20T03:59:44;3.30;;;3.10;;
65552;SDS011;52465;51.560;14.368;2023-07-20T04:08:23;3.38;;;3.17;;
65552;SDS011;52465;51.560;14.368;2023-07-20T04:16:15;3.50;;;3.30;;
65552;SDS011;52465;51.560;14.368;2023-07-20T04:18:40;3.22;;;3.03;;
65552;SDS011;52465;51.560;14.368;2023-07-20T04:21:07;3.30;;;3.10;;
65552;SDS011;52465;51.560;14.368;2023-07-20T04:26:51;3.20;;;3.00;;
65552;SDS011;52465;51.560;14.368;2023-07-20T04:29:17;3.15;;;2.95;;
65552;SDS011;52465;51.560;14.368;2023-07-20T04:33:47;3.28;;;3.10;;
65552;SDS011;52465;51.560;14.368;2023-07-20T04:38:37;3.63;;;3.33;;
65552;SDS011;52465;51.560;14.368;2023-07-20T04:42:32;3.40;;;3.20;;
65552;SDS011;52465;51.560;14.368;2023-07-20T04:51:29;3.35;;;3.17;;
65552;SDS011;52465;51.560;14.368;2023-07-20T05:06:07;3.47;;;3.28;;
65552;SDS011;52465;51.560;14.368;2023-07-20T05:15:00;3.30;;;3.10;;
65552;SDS011;52465;51.560;14.368;2023-07-20T05:17:25;3.30;;;3.10;;
65552;SDS011;52465;51.560;14.368;2023-07-20T05:23:28;3.17;;;2.97;;
65552;SDS011;52465;51.560;14.368;2023-07-20T05:30:04;3.45;;;3.25;;
65552;SDS011;52465;51.560;14.368;2023-07-20T05:38:50;3.30;;;3.10;;
65552;SDS011;52465;51.560;14.368;2023-07-20T05:41:15;3.33;;;3.13;;
65552;SDS011;52465;51.560;14.368;2023-07-20T05:45:26;3.53;;;3.33;;
65552;SDS011;52465;51.560;14.368;2023-07-20T05:54:56;3.60;;;3.40;;
65552;SDS011;52465;51.560;14.368;2023-07-20T05:57:22;3.70;;;3.50;;
65552;SDS011;52465;51.560;14.368;2023-07-20T06:08:01;3.50;;;3.30;;
65552;SDS011;52465;51.560;14.368;2023-07-20T06:15:26;3.53;;;3.33;;
65552;SDS011;52465;51.560;14.368;2023-07-20T06:19:49;3.80;;;3.60;;
65552;SDS011;52465;51.560;14.368;2023-07-20T06:26:19;3.70;;;3.50;;
65552;SDS011;52465;51.560;14.368;2023-07-20T06:30:42;3.80;;;3.53;;
65552;SDS011;52465;51.560;14.368;2023-07-20T06:42:21;3.50;;;3.30;;
65552;SDS011;52465;51.560;14.368;2023-07-20T06:44:47;3.50;;;3.30;;
65552;SDS011;52465;51.560;14.368;2023-07-20T06:47:12;3.50;;;3.30;;
65552;SDS011;52465;51.560;14.368;2023-07-20T06:49:38;3.53;;;3.33;;
65552;SDS011;52465;51.560;14.368;2023-07-20T06:54:10;3.50;;;3.30;;
65552;SDS011;52465;51.560;14.368;2023-07-20T06:56:36;3.60;;;3.40;;
65552;SDS011;52465;51.560;14.368;2023-07-20T07:02:19;3.50;;;3.30;;
65552;SDS011;52465;51.560;14.368;2023-07-20T07:04:44;3.88;;;3.58;;
65552;SDS011;52465;51.560;14.368;2023-07-20T07:13:00;3.50;;;3.30;;
65552;SDS011;52465;51.560;14.368;2023-07-20T07:15:26;3.50;;;3.30;;
65552;SDS011;52465;51.560;14.368;2023-07-20T07:19:31;3.58;;;3.38;;
65552;SDS011;52465;51.560;14.368;2023-07-20T07:21:57;3.80;;;3.60;;
65552;SDS011;52465;51.560;14.368;2023-07-20T07:26:03;3.70;;;3.50;;
65552;SDS011;52465;51.560;14.368;2023-07-20T07:38:01;3.67;;;3.47;;
65552;SDS011;52465;51.560;14.368;2023-07-20T07:42:16;3.45;;;3.25;;
65552;SDS011;52465;51.560;14.368;2023-07-20T07:46:04;3.67;;;3.47;;
65552;SDS011;52465;51.560;14.368;2023-07-20T07:51:54;3.30;;;3.20;;
65552;SDS011;52465;51.560;14.368;2023-07-20T07:54:19;3.58;;;3.30;;
65552;SDS011;52465;51.560;14.368;2023-07-20T07:56:45;3.67;;;3.47;;
65552;SDS011;52465;51.560;14.368;2023-07-20T07:59:10;3.50;;;3.30;;
65552;SDS011;52465;51.560;14.368;2023-07-20T08:01:36;3.60;;;3.40;;
65552;SDS011;52465;51.560;14.368;2023-07-20T08:05:25;3.47;;;3.28;;
65552;SDS011;52465;51.560;14.368;2023-07-20T08:11:35;3.45;;;3.25;;
65552;SDS011;52465;51.560;14.368;2023-07-20T08:14:01;3.65;;;3.45;;
65552;SDS011;52465;51.560;14.368;2023-07-20T08:16:26;3.63;;;3.42;;
65552;SDS011;52465;51.560;14.368;2023-07-20T08:18:52;3.63;;;3.42;;
65552;SDS011;52465;51.560;14.368;2023-07-20T08:30:26;3.22;;;3.13;;
65552;SDS011;52465;51.560;14.368;2023-07-20T08:33:04;3.50;;;3.30;;
65552;SDS011;52465;51.560;14.368;2023-07-20T08:45:21;3.60;;;3.40;;
65552;SDS011;52465;51.560;14.368;2023-07-20T08:49:49;3.55;;;3.35;;
65552;SDS011;52465;51.560;14.368;2023-07-20T08:52:14;3.47;;;3.30;;
65552;SDS011;52465;51.560;14.368;2023-07-20T08:56:41;3.30;;;3.10;;
65552;SDS011;52465;51.560;14.368;2023-07-20T09:03:15;3.15;;;3.05;;
65552;SDS011;52465;51.560;14.368;2023-07-20T09:05:41;3.60;;;3.40;;
65552;SDS011;52465;51.560;14.368;2023-07-20T09:09:59;3.50;;;3.10;;
65552;SDS011;52465;51.560;14.368;2023-07-20T09:14:13;3.10;;;3.00;;
65552;SDS011;52465;51.560;14.368;2023-07-20T09:16:48;3.28;;;3.03;;
65552;SDS011;52465;51.560;14.368;2023-07-20T09:19:25;3.10;;;3.00;;
65552;SDS011;52465;51.560;14.368;2023-07-20T09:23:36;3.20;;;3.10;;
65552;SDS011;52465;51.560;14.368;2023-07-20T09:26:09;3.40;;;3.20;;
65552;SDS011;52465;51.560;14.368;2023-07-20T09:28:39;3.38;;;3.17;;
65552;SDS011;52465;51.560;14.368;2023-07-20T09:31:11;3.50;;;3.30;;
65552;SDS011;52465;51.560;14.368;2023-07-20T09:33:41;3.33;;;3.13;;
65552;SDS011;52465;51.560;14.368;2023-07-20T09:36:06;3.20;;;3.10;;
65552;SDS011;52465;51.560;14.368;2023-07-20T09:38:34;3.50;;;3.30;;
65552;SDS011;52465;51.560;14.368;2023-07-20T09:41:01;3.42;;;3.22;;
65552;SDS011;52465;51.560;14.368;2023-07-20T09:43:28;3.40;;;3.20;;
65552;SDS011;52465;51.560;14.368;2023-07-20T09:45:57;3.40;;;3.20;;
65552;SDS011;52465;51.560;14.368;2023-07-20T09:48:23;3.30;;;3.10;;
65552;SDS011;52465;51.560;14.368;2023-07-20T09:50:51;3.20;;;3.00;;
65552;SDS011;52465;51.560;14.368;2023-07-20T09:53:17;3.40;;;3.20;;
65552;SDS011;52465;51.560;14.368;2023-07-20T09:55:43;3.50;;;3.30;;
65552;SDS011;52465;51.560;14.368;2023-07-20T09:58:09;3.40;;;3.10;;
65552;SDS011;52465;51.560;14.368;2023-07-20T10:02:32;3.42;;;3.22;;
65552;SDS011;52465;51.560;14.368;2023-07-20T10:04:59;3.40;;;3.20;;
65552;SDS011;52465;51.560;14.368;2023-07-20T10:09:02;3.35;;;3.20;;
65552;SDS011;52465;51.560;14.368;2023-07-20T10:14:44;3.10;;;3.00;;
65552;SDS011;52465;51.560;14.368;2023-07-20T10:17:21;3.42;;;3.13;;
65552;SDS011;52465;51.560;14.368;2023-07-20T10:30:30;3.10;;;2.90;;
65552;SDS011;52465;51.560;14.368;2023-07-20T10:32:55;3.50;;;3.30;;
65552;SDS011;52465;51.560;14.368;2023-07-20T10:35:21;3.22;;;3.03;;
65552;SDS011;52465;51.560;14.368;2023-07-20T10:37:50;3.63;;;3.30;;
65552;SDS011;52465;51.560;14.368;2023-07-20T10:42:03;3.20;;;3.00;;
65552;SDS011;52465;51.560;14.368;2023-07-20T10:49:00;3.15;;;2.88;;
65552;SDS011;52465;51.560;14.368;2023-07-20T10:51:29;3.00;;;2.90;;
65552;SDS011;52465;51.560;14.368;2023-07-20T10:53:55;3.20;;;3.00;;
65552;SDS011;52465;51.560;14.368;2023-07-20T10:56:21;3.10;;;3.00;;
65552;SDS011;52465;51.560;14.368;2023-07-20T11:01:00;3.20;;;3.00;;
65552;SDS011;52465;51.560;14.368;2023-07-20T11:03:27;3.30;;;3.10;;
65552;SDS011;52465;51.560;14.368;2023-07-20T11:05:53;3.40;;;3.20;;
65552;SDS011;52465;51.560;14.368;2023-07-20T11:14:40;3.50;;;3.30;;
65552;SDS011;52465;51.560;14.368;2023-07-20T11:17:10;3.33;;;3.13;;
65552;SDS011;52465;51.560;14.368;2023-07-20T11:19:36;3.00;;;2.90;;
65552;SDS011;52465;51.560;14.368;2023-07-20T11:22:02;3.00;;;2.90;;
65552;SDS011;52465;51.560;14.368;2023-07-20T11:27:55;3.03;;;2.90;;
65552;SDS011;52465;51.560;14.368;2023-07-20T11:32:30;3.00;;;2.90;;
65552;SDS011;52465;51.560;14.368;2023-07-20T11:36:48;3.10;;;3.00;;
65552;SDS011;52465;51.560;14.368;2023-07-20T11:40:58;3.10;;;2.95;;
65552;SDS011;52465;51.560;14.368;2023-07-20T11:45:04;2.90;;;2.80;;
65552;SDS011;52465;51.560;14.368;2023-07-20T11:49:21;3.05;;;2.90;;
65552;SDS011;52465;51.560;14.368;2023-07-20T11:55:57;3.00;;;2.90;;
65552;SDS011;52465;51.560;14.368;2023-07-20T11:58:23;3.05;;;2.95;;
65552;SDS011;52465;51.560;14.368;2023-07-20T12:07:54;3.13;;;2.92;;
65552;SDS011;52465;51.560;14.368;2023-07-20T12:12:18;2.90;;;2.80;;
65552;SDS011;52465;51.560;14.368;2023-07-20T12:14:44;2.92;;;2.83;;
65552;SDS011;52465;51.560;14.368;2023-07-20T12:17:09;3.20;;;3.00;;
65552;SDS011;52465;51.560;14.368;2023-07-20T12:19:37;2.85;;;2.75;;
65552;SDS011;52465;51.560;14.368;2023-07-20T12:23:48;3.15;;;3.05;;
65552;SDS011;52465;51.560;14.368;2023-07-20T12:26:14;3.25;;;3.05;;
65552;SDS011;52465;51.560;14.368;2023-07-20T12:32:30;2.95;;;2.85;;
65552;SDS011;52465;51.560;14.368;2023-07-20T12:37:08;3.08;;;2.88;;
65552;SDS011;52465;51.560;14.368;2023-07-20T12:39:34;3.00;;;2.90;;
65552;SDS011;52465;51.560;14.368;2023-07-20T12:41:59;3.20;;;3.08;;
65552;SDS011;52465;51.560;14.368;2023-07-20T12:48:12;3.00;;;2.90;;
65552;SDS011;52465;51.560;14.368;2023-07-20T12:50:38;3.00;;;2.90;;
65552;SDS011;52465;51.560;14.368;2023-07-20T12:53:03;3.00;;;2.80;;
65552;SDS011;52465;51.560;14.368;2023-07-20T12:58:39;3.00;;;2.90;;
65552;SDS011;52465;51.560;14.368;2023-07-20T13:01:04;3.20;;;3.00;;
65552;SDS011;52465;51.560;14.368;2023-07-20T13:09:01;2.80;;;2.70;;
65552;SDS011;52465;51.560;14.368;2023-07-20T13:11:27;2.90;;;2.80;;
65552;SDS011;52465;51.560;14.368;2023-07-20T13:13:52;3.53;;;2.80;;
65552;SDS011;52465;51.560;14.368;2023-07-20T13:20:15;3.05;;;2.90;;
65552;SDS011;52465;51.560;14.368;2023-07-20T13:22:41;2.90;;;2.80;;
65552;SDS011;52465;51.560;14.368;2023-07-20T13:25:07;2.80;;;2.70;;
65552;SDS011;52465;51.560;14.368;2023-07-20T13:27:33;2.90;;;2.80;;
65552;SDS011;52465;51.560;14.368;2023-07-20T13:29:58;3.10;;;3.00;;
65552;SDS011;52465;51.560;14.368;2023-07-20T13:32:24;2.83;;;2.72;;
65552;SDS011;52465;51.560;14.368;2023-07-20T13:34:49;3.00;;;2.90;;
65552;SDS011;52465;51.560;14.368;2023-07-20T13:37:16;3.15;;;3.05;;
65552;SDS011;52465;51.560;14.368;2023-07-20T13:39:41;2.70;;;2.60;;
65552;SDS011;52465;51.560;14.368;2023-07-20T13:42:07;3.00;;;2.90;;
65552;SDS011;52465;51.560;14.368;2023-07-20T13:44:32;2.90;;;2.80;;
65552;SDS011;52465;51.560;14.368;2023-07-20T13:46:58;3.15;;;3.00;;
65552;SDS011;52465;51.560;14.368;2023-07-20T13:49:24;3.10;;;2.90;;
65552;SDS011;52465;51.560;14.368;2023-07-20T13:51:49;3.20;;;3.00;;
65552;SDS011;52465;51.560;14.368;2023-07-20T13:57:11;2.85;;;2.75;;
65552;SDS011;52465;51.560;14.368;2023-07-20T14:01:47;2.80;;;2.70;;
65552;SDS011;52465;51.560;14.368;2023-07-20T14:04:12;3.08;;;2.97;;
65552;SDS011;52465;51.560;14.368;2023-07-20T14:12:24;2.90;;;2.80;;
65552;SDS011;52465;51.560;14.368;2023-07-20T14:18:52;3.08;;;2.97;;
65552;SDS011;52465;51.560;14.368;2023-07-20T14:30:39;2.80;;;2.70;;
65552;SDS011;52465;51.560;14.368;2023-07-20T14:34:56;3.03;;;2.92;;
65552;SDS011;52465;51.560;14.368;2023-07-20T14:45:52;3.08;;;2.97;;
65552;SDS011;52465;51.560;14.368;2023-07-20T14:50:14;3.17;;;2.97;;
65552;SDS011;52465;51.560;14.368;2023-07-20T14:54:46;3.03;;;2.92;;
65552;SDS011;52465;51.560;14.368;2023-07-20T14:57:12;2.90;;;2.80;;
65552;SDS011;52465;51.560;14.368;2023-07-20T15:01:15;3.10;;;3.00;;
65552;SDS011;52465;51.560;14.368;2023-07-20T15:07:05;3.00;;;2.90;;
65552;SDS011;52465;51.560;14.368;2023-07-20T15:16:11;2.90;;;2.80;;
65552;SDS011;52465;51.560;14.368;2023-07-20T15:23:16;3.13;;;2.92;;
65552;SDS011;52465;51.560;14.368;2023-07-20T15:29:30;2.90;;;2.80;;
65552;SDS011;52465;51.560;14.368;2023-07-20T15:34:03;3.17;;;2.88;;
65552;SDS011;52465;51.560;14.368;2023-07-20T15:36:28;3.00;;;2.90;;
65552;SDS011;52465;51.560;14.368;2023-07-20T15:38:53;3.00;;;2.80;;
65552;SDS011;52465;51.560;14.368;2023-07-20T15:41:19;3.15;;;3.00;;
65552;SDS011;52465;51.560;14.368;2023-07-20T15:43:44;3.00;;;2.90;;
65552;SDS011;52465;51.560;14.368;2023-07-20T15:56:17;3.05;;;2.85;;
65552;SDS011;52465;51.560;14.368;2023-07-20T15:58:43;3.00;;;2.90;;
65552;SDS011;52465;51.560;14.368;2023-07-20T16:11:51;3.00;;;2.90;;
65552;SDS011;52465;51.560;14.368;2023-07-20T16:14:16;3.30;;;3.10;;
65552;SDS011;52465;51.560;14.368;2023-07-20T16:16:43;3.10;;;3.00;;
65552;SDS011;52465;51.560;14.368;2023-07-20T16:20:54;2.90;;;2.80;;
65552;SDS011;52465;51.560;14.368;2023-07-20T16:24:45;3.20;;;3.00;;
65552;SDS011;52465;51.560;14.368;2023-07-20T16:27:10;2.80;;;2.70;;
65552;SDS011;52465;51.560;14.368;2023-07-20T16:29:36;2.75;;;2.65;;
65552;SDS011;52465;51.560;14.368;2023-07-20T16:32:01;3.22;;;3.13;;
65552;SDS011;52465;51.560;14.368;2023-07-20T16:39:23;3.10;;;2.90;;
65552;SDS011;52465;51.560;14.368;2023-07-20T16:57:57;2.90;;;2.80;;
65552;SDS011;52465;51.560;14.368;2023-07-20T17:00:22;2.90;;;2.80;;
65552;SDS011;52465;51.560;14.368;2023-07-20T17:06:04;3.10;;;2.90;;
65552;SDS011;52465;51.560;14.368;2023-07-20T17:10:11;2.80;;;2.70;;
65552;SDS011;52465;51.560;14.368;2023-07-20T17:12:37;3.00;;;2.90;;
65552;SDS011;52465;51.560;14.368;2023-07-20T17:18:52;2.90;;;2.80;;
65552;SDS011;52465;51.560;14.368;2023-07-20T17:21:18;2.88;;;2.78;;
65552;SDS011;52465;51.560;14.368;2023-07-20T17:28:43;3.17;;;2.90;;
65552;SDS011;52465;51.560;14.368;2023-07-20T17:31:09;2.95;;;2.80;;
65552;SDS011;52465;51.560;14.368;2023-07-20T17:35:31;3.00;;;2.90;;
65552;SDS011;52465;51.560;14.368;2023-07-20T17:37:56;2.85;;;2.75;;
65552;SDS011;52465;51.560;14.368;2023-07-20T17:40:22;3.00;;;2.80;;
65552;SDS011;52465;51.560;14.368;2023-07-20T17:51:05;3.00;;;2.90;;
65552;SDS011;52465;51.560;14.368;2023-07-20T17:53:31;2.60;;;2.50;;
65552;SDS011;52465;51.560;14.368;2023-07-20T17:59:33;2.85;;;2.72;;
65552;SDS011;52465;51.560;14.368;2023-07-20T18:05:45;2.78;;;2.67;;
65552;SDS011;52465;51.560;14.368;2023-07-20T18:13:12;3.00;;;2.90;;
65552;SDS011;52465;51.560;14.368;2023-07-20T18:15:38;3.00;;;2.90;;
65552;SDS011;52465;51.560;14.368;2023-07-20T18:19:53;2.80;;;2.70;;
65552;SDS011;52465;51.560;14.368;2023-07-20T18:25:53;2.90;;;2.80;;
65552;SDS011;52465;51.560;14.368;2023-07-20T18:33:41;2.88;;;2.78;;
65552;SDS011;52465;51.560;14.368;2023-07-20T18:45:56;2.95;;;2.80;;
65552;SDS011;52465;51.560;14.368;2023-07-20T18:51:51;2.72;;;2.63;;
65552;SDS011;52465;51.560;14.368;2023-07-20T18:59:02;2.90;;;2.80;;
65552;SDS011;52465;51.560;14.368;2023-07-20T19:16:53;2.90;;;2.80;;
65552;SDS011;52465;51.560;14.368;2023-07-20T19:47:06;2.90;;;2.80;;
65552;SDS011;52465;51.560;14.368;2023-07-20T20:00:02;2.90;;;2.80;;
65552;SDS011;52465;51.560;14.368;2023-07-20T20:04:18;2.80;;;2.70;;
65552;SDS011;52465;51.560;14.368;2023-07-20T20:11:43;2.83;;;2.72;;
65552;SDS011;52465;51.560;14.368;2023-07-20T20:18:32;2.92;;;2.80;;
65552;SDS011;52465;51.560;14.368;2023-07-20T20:36:51;2.70;;;2.60;;
65552;SDS011;52465;51.560;14.368;2023-07-20T20:39:16;2.90;;;2.80;;
65552;SDS011;52465;51.560;14.368;2023-07-20T20:41:42;2.80;;;2.70;;
65552;SDS011;52465;51.560;14.368;2023-07-20T20:49:01;2.88;;;2.78;;
65552;SDS011;52465;51.560;14.368;2023-07-20T20:56:52;2.92;;;2.83;;
65552;SDS011;52465;51.560;14.368;2023-07-20T21:02:22;2.80;;;2.70;;
65552;SDS011;52465;51.560;14.368;2023-07-20T21:09:11;2.80;;;2.70;;
65552;SDS011;52465;51.560;14.368;2023-07-20T21:11:37;2.90;;;2.70;;
65552;SDS011;52465;51.560;14.368;2023-07-20T21:14:02;3.00;;;2.90;;
65552;SDS011;52465;51.560;14.368;2023-07-20T21:27:46;2.90;;;2.80;;
65552;SDS011;52465;51.560;14.368;2023-07-20T21:30:14;3.15;;;2.90;;
65552;SDS011;52465;51.560;14.368;2023-07-20T21:32:40;3.15;;;2.97;;
65552;SDS011;52465;51.560;14.368;2023-07-20T21:36:50;2.83;;;2.72;;
65552;SDS011;52465;51.560;14.368;2023-07-20T21:39:15;2.90;;;2.80;;
65552;SDS011;52465;51.560;14.368;2023-07-20T21:48:57;2.92;;;2.72;;
65552;SDS011;52465;51.560;14.368;2023-07-20T22:01:10;2.80;;;2.70;;
65552;SDS011;52465;51.560;14.368;2023-07-20T22:16:33;3.00;;;2.90;;
65552;SDS011;52465;51.560;14.368;2023-07-20T22:27:07;2.97;;;2.88;;
65552;SDS011;52465;51.560;14.368;2023-07-20T22:29:32;3.00;;;2.90;;
65552;SDS011;52465;51.560;14.368;2023-07-20T22:31:58;3.03;;;2.92;;
65552;SDS011;52465;51.560;14.368;2023-07-20T22:34:23;2.90;;;2.80;;
65552;SDS011;52465;51.560;14.368;2023-07-20T22:38:52;3.17;;;3.00;;
65552;SDS011;52465;51.560;14.368;2023-07-20T22:48:00;2.95;;;2.80;;
65552;SDS011;52465;51.560;14.368;2023-07-20T23:01:38;2.80;;;2.70;;
65552;SDS011;52465;51.560;14.368;2023-07-20T23:09:28;3.10;;;2.90;;
65552;SDS011;52465;51.560;14.368;2023-07-20T23:11:54;3.20;;;3.00;;
65552;SDS011;52465;51.560;14.368;2023-07-20T23:16:32;3.00;;;2.90;;
65552;SDS011;52465;51.560;14.368;2023-07-20T23:18:58;3.00;;;2.90;;
65552;SDS011;52465;51.560;14.368;2023-07-20T23:21:23;2.95;;;2.83;;
65552;SDS011;52465;51.560;14.368;2023-07-20T23:27:02;2.90;;;2.80;;
65552;SDS011;52465;51.560;14.368;2023-07-20T23:32:50;2.92;;;2.83;;
65552;SDS011;52465;51.560;14.368;2023-07-20T23:35:18;2.97;;;2.80;;
65552;SDS011;52465;51.560;14.368;2023-07-20T23:37:43;3.10;;;2.90;;
65552;SDS011;52465;51.560;14.368;2023-07-20T23:40:09;3.00;;;2.90;;
65552;SDS011;52465;51.560;14.368;2023-07-20T23:45:34;3.00;;;2.90;;
65552;SDS011;52465;51.560;14.368;2023-07-20T23:52:03;3.03;;;2.92;;
